DNIB

Ibadan Airport

Ibadan, Nigeria
METAR DNIB 221400Z 16010KT 9999 SCT014 32/24 Q1010
Observed Flight Rules
May-22 @ 14:00 UTC (4 hours ago) Visual Flight Rules
Wind Visibility Clouds
160° at 10 knots 10,000+ meters
  • Scattered at 1,400' AGL
Temperatures Readings
Current 32°C / 90°F
Dewpoint 24°C / 75°F
Humidity 63%
Altimeter 29.82" Hg
Pressure 1010 hPa
Elevation 228
METAR DNIB 221400Z 16010KT 9999 SCT014 32/24 Q1010
Observed Flight Rules
May-22 @ 14:00 UTC
(4 hours ago)
VFR
Wind Visibility
160° at 10 knots 10,000+ meters
Clouds
  • Scattered at 1,400' AGL
Temperature Dewpoint
32°C / 90°F 24°C / 75°F
Humidity Altimeter Pressure
63% 29.82" Hg 1010 hPa